createdAt,value
2018-09-19T00:00:16.998Z,17.50
2018-09-19T00:02:19.182Z,17.50
2018-09-19T00:04:21.467Z,17.40
2018-09-19T00:06:23.701Z,17.40
2018-09-19T00:08:25.833Z,17.40
2018-09-19T00:10:28.027Z,17.40
2018-09-19T00:15:08.093Z,17.40
2018-09-19T00:17:10.256Z,17.40
2018-09-19T00:19:12.437Z,17.30
2018-09-19T00:21:14.963Z,17.30
2018-09-19T00:23:17.150Z,17.30
2018-09-19T00:25:19.358Z,17.40
2018-09-19T00:27:21.605Z,17.30
2018-09-19T00:29:23.780Z,17.40
2018-09-19T00:31:25.901Z,17.30
2018-09-19T00:33:28.084Z,17.30
2018-09-19T00:35:30.284Z,17.20
2018-09-19T00:37:32.511Z,17.20
2018-09-19T00:39:34.726Z,17.30
2018-09-19T00:41:36.947Z,17.20
2018-09-19T00:43:39.132Z,17.20
2018-09-19T00:45:41.460Z,17.20
2018-09-19T00:47:43.631Z,17.20
2018-09-19T00:49:45.832Z,17.20
2018-09-19T00:51:48.118Z,17.10
2018-09-19T00:53:50.295Z,17.10
2018-09-19T00:55:52.465Z,17.10
2018-09-19T00:57:54.694Z,17.10
2018-09-19T00:59:56.854Z,17.00
2018-09-19T01:01:59.047Z,17.00
2018-09-19T01:04:01.251Z,17.00
2018-09-19T01:06:03.430Z,17.00
2018-09-19T01:08:05.599Z,17.00
2018-09-19T01:10:07.768Z,17.00
2018-09-19T01:12:09.961Z,17.00
2018-09-19T01:14:12.107Z,16.90
2018-09-19T01:16:14.299Z,16.80
2018-09-19T01:18:16.736Z,16.80
2018-09-19T01:20:18.908Z,16.90
2018-09-19T01:22:21.088Z,16.80
2018-09-19T01:24:23.302Z,16.80
2018-09-19T01:26:25.439Z,16.80
2018-09-19T01:28:27.603Z,16.70
2018-09-19T01:30:29.766Z,16.80
2018-09-19T01:32:31.966Z,16.70
2018-09-19T01:34:34.136Z,16.70
2018-09-19T01:36:36.313Z,16.70
2018-09-19T01:38:38.566Z,16.70
2018-09-19T01:40:47.446Z,16.70
2018-09-19T01:42:49.611Z,16.60
2018-09-19T01:44:51.787Z,16.60
2018-09-19T01:46:53.983Z,16.50
2018-09-19T01:48:56.256Z,16.50
2018-09-19T01:50:58.453Z,16.50
2018-09-19T01:53:00.585Z,16.50
2018-09-19T01:55:02.789Z,16.50
2018-09-19T01:57:05.025Z,16.50
2018-09-19T01:59:07.250Z,16.50
2018-09-19T02:01:09.540Z,16.40
2018-09-19T02:03:11.745Z,16.40
2018-09-19T02:05:13.923Z,16.40
2018-09-19T02:07:16.133Z,16.40
2018-09-19T02:09:18.318Z,16.30
2018-09-19T02:11:20.504Z,16.30
2018-09-19T02:13:22.704Z,16.30
2018-09-19T02:15:24.882Z,16.30
2018-09-19T02:17:33.952Z,16.30
2018-09-19T02:19:36.085Z,16.20
2018-09-19T02:21:38.248Z,16.20
2018-09-19T02:23:40.509Z,16.20
2018-09-19T02:25:42.682Z,16.20
2018-09-19T02:27:44.845Z,16.20
2018-09-19T02:29:47.032Z,16.20
2018-09-19T02:31:49.255Z,16.10
2018-09-19T02:33:51.469Z,16.10
2018-09-19T02:35:53.634Z,16.20
2018-09-19T02:37:55.843Z,16.10
2018-09-19T02:39:57.970Z,16.20
2018-09-19T02:42:00.459Z,16.10
2018-09-19T02:44:02.677Z,16.20
2018-09-19T02:46:04.856Z,16.10
2018-09-19T02:48:07.096Z,16.20
2018-09-19T02:50:09.280Z,16.10
2018-09-19T02:52:11.503Z,16.10
2018-09-19T02:54:14.124Z,16.20
2018-09-19T02:56:16.316Z,16.10
2018-09-19T02:58:18.638Z,16.10
2018-09-19T03:00:21.034Z,16.20
2018-09-19T03:02:23.224Z,16.20
2018-09-19T03:04:25.385Z,16.10
2018-09-19T03:06:27.910Z,16.10
2018-09-19T03:08:30.469Z,16.10
2018-09-19T03:10:32.632Z,16.00
2018-09-19T03:12:34.860Z,16.00
2018-09-19T03:14:37.035Z,16.10
2018-09-19T03:16:39.229Z,16.10
2018-09-19T03:18:41.459Z,16.10
2018-09-19T03:20:43.671Z,16.10
2018-09-19T03:22:45.854Z,16.10
2018-09-19T03:24:48.104Z,16.00
2018-09-19T03:26:50.279Z,16.00
2018-09-19T03:28:52.492Z,16.00
2018-09-19T03:30:54.706Z,16.00
2018-09-19T03:32:56.849Z,15.90
2018-09-19T03:34:59.013Z,15.90
2018-09-19T03:37:01.179Z,15.90
2018-09-19T03:39:06.464Z,15.90
2018-09-19T03:41:09.416Z,15.90
2018-09-19T03:43:11.602Z,15.90
2018-09-19T03:45:13.786Z,15.90
2018-09-19T03:47:15.928Z,15.90
2018-09-19T03:49:18.197Z,16.00
2018-09-19T03:51:20.393Z,16.00
2018-09-19T03:53:22.545Z,16.00
2018-09-19T03:55:24.776Z,15.90
2018-09-19T03:57:27.055Z,16.00
2018-09-19T03:59:29.257Z,16.00
2018-09-19T04:01:31.464Z,16.00
2018-09-19T04:03:33.650Z,15.90
2018-09-19T04:05:35.843Z,15.90
2018-09-19T04:07:38.032Z,15.90
2018-09-19T04:09:40.219Z,15.80
2018-09-19T04:11:42.388Z,15.80
2018-09-19T04:13:44.651Z,15.80
2018-09-19T04:15:46.770Z,15.70
2018-09-19T04:17:49.026Z,15.70
2018-09-19T04:19:51.204Z,15.70
2018-09-19T04:21:53.396Z,15.70
2018-09-19T04:23:55.571Z,15.70
2018-09-19T04:25:57.779Z,15.70
2018-09-19T04:27:59.963Z,15.70
2018-09-19T04:30:02.145Z,15.60
2018-09-19T04:32:04.505Z,15.60
2018-09-19T04:34:06.683Z,15.60
2018-09-19T04:36:08.881Z,15.70
2018-09-19T04:38:11.160Z,15.60
2018-09-19T04:40:13.370Z,15.60
2018-09-19T04:42:15.550Z,15.60
2018-09-19T04:44:17.723Z,15.70
2018-09-19T04:46:19.950Z,15.60
2018-09-19T04:48:22.146Z,15.50
2018-09-19T04:50:24.327Z,15.50
2018-09-19T04:52:26.507Z,15.50
2018-09-19T04:54:28.694Z,15.50
2018-09-19T04:56:30.934Z,15.50
2018-09-19T04:58:33.261Z,15.50
2018-09-19T05:00:35.470Z,15.50
2018-09-19T05:02:37.670Z,15.50
2018-09-19T05:04:39.837Z,15.50
2018-09-19T05:06:42.014Z,15.50
2018-09-19T05:08:44.255Z,15.60
2018-09-19T05:10:46.420Z,15.60
2018-09-19T05:12:48.573Z,15.60
2018-09-19T05:14:50.967Z,15.70
2018-09-19T05:16:53.197Z,15.70
2018-09-19T05:19:02.278Z,15.80
2018-09-19T05:21:04.841Z,15.80
2018-09-19T05:23:07.018Z,15.80
2018-09-19T05:25:09.194Z,15.80
2018-09-19T05:27:12.393Z,15.80
2018-09-19T05:29:14.562Z,15.80
2018-09-19T05:31:16.703Z,15.90
2018-09-19T05:33:18.891Z,15.90
2018-09-19T05:35:21.128Z,15.90
2018-09-19T05:37:23.295Z,16.00
2018-09-19T05:39:25.555Z,16.00
2018-09-19T05:41:27.714Z,16.20
2018-09-19T05:43:29.988Z,16.20
2018-09-19T05:45:32.722Z,16.20
2018-09-19T05:47:34.872Z,16.30
2018-09-19T05:49:37.022Z,16.30
2018-09-19T05:51:39.174Z,16.50
2018-09-19T05:53:41.334Z,16.60
2018-09-19T05:55:43.655Z,16.60
2018-09-19T05:57:45.859Z,16.60
2018-09-19T05:59:49.486Z,16.70
2018-09-19T06:01:51.601Z,16.60
2018-09-19T06:03:53.836Z,16.70
2018-09-19T06:05:55.966Z,16.70
2018-09-19T06:07:58.073Z,16.70
2018-09-19T06:10:00.205Z,16.70
2018-09-19T06:12:08.405Z,16.70
2018-09-19T06:14:10.594Z,16.70
2018-09-19T06:16:12.906Z,16.80
2018-09-19T06:18:15.038Z,16.80
2018-09-19T06:20:17.183Z,16.90
2018-09-19T06:22:19.312Z,17.00
2018-09-19T06:24:21.516Z,17.10
2018-09-19T06:26:23.718Z,17.20
2018-09-19T06:28:25.903Z,17.20
2018-09-19T06:30:28.097Z,17.20
2018-09-19T06:32:30.502Z,17.30
2018-09-19T06:34:32.719Z,17.40
2018-09-19T06:36:34.887Z,17.50
2018-09-19T06:38:37.143Z,17.60
2018-09-19T06:40:39.497Z,17.60
2018-09-19T06:42:41.653Z,17.70
2018-09-19T06:44:43.887Z,17.80
2018-09-19T06:46:46.040Z,17.80
2018-09-19T06:48:48.212Z,17.70
2018-09-19T06:50:59.849Z,17.70
2018-09-19T06:53:02.479Z,17.90
2018-09-19T06:55:04.787Z,18.10
2018-09-19T06:57:07.178Z,17.90
2018-09-19T06:59:09.354Z,17.90
2018-09-19T07:01:11.555Z,18.00
2018-09-19T07:03:14.002Z,17.80
2018-09-19T07:05:16.166Z,17.80
2018-09-19T07:07:18.322Z,17.80
2018-09-19T07:09:20.729Z,17.80
2018-09-19T07:11:22.906Z,17.90
2018-09-19T07:13:25.130Z,17.90
2018-09-19T07:15:27.367Z,17.90
2018-09-19T07:17:29.591Z,18.10
2018-09-19T07:19:31.774Z,18.00
2018-09-19T07:21:34.601Z,18.00
2018-09-19T07:23:36.914Z,18.00
2018-09-19T07:25:39.033Z,18.00
2018-09-19T07:27:41.912Z,18.00
2018-09-19T07:29:44.137Z,18.10
2018-09-19T07:31:46.396Z,18.20
2018-09-19T07:33:48.621Z,18.30
2018-09-19T07:35:50.893Z,18.50
2018-09-19T07:37:53.150Z,18.80
2018-09-19T07:39:55.440Z,18.90
2018-09-19T07:41:57.595Z,18.90
2018-09-19T07:43:59.787Z,18.90
2018-09-19T07:46:02.515Z,19.10
2018-09-19T07:48:05.139Z,19.20
2018-09-19T07:50:07.820Z,19.30
2018-09-19T07:52:11.191Z,19.20
2018-09-19T07:54:13.605Z,19.40
2018-09-19T07:56:15.807Z,19.50
2018-09-19T07:58:18.114Z,19.50
2018-09-19T08:00:20.344Z,19.40
2018-09-19T08:02:22.578Z,19.50
2018-09-19T08:04:24.798Z,19.60
2018-09-19T08:06:27.438Z,19.70
2018-09-19T08:08:29.741Z,19.70
2018-09-19T08:10:31.991Z,19.70
2018-09-19T08:12:34.287Z,19.90
2018-09-19T08:14:36.582Z,19.90
2018-09-19T08:16:38.785Z,20.00
2018-09-19T08:18:40.982Z,20.10
2018-09-19T08:20:43.179Z,20.10
2018-09-19T08:22:45.670Z,20.20
2018-09-19T08:24:47.819Z,20.20
2018-09-19T08:26:50.094Z,20.20
2018-09-19T08:28:52.485Z,20.30
2018-09-19T08:30:54.661Z,20.60
2018-09-19T08:32:57.238Z,20.50
2018-09-19T08:34:59.531Z,20.50
2018-09-19T08:37:01.826Z,20.60
2018-09-19T08:39:06.464Z,20.70
2018-09-19T08:41:09.206Z,20.70
2018-09-19T08:43:11.422Z,20.50
2018-09-19T08:45:14.211Z,20.60
2018-09-19T08:47:16.459Z,20.80
2018-09-19T08:49:18.670Z,20.90
2018-09-19T08:51:20.887Z,21.20
2018-09-19T08:53:23.106Z,21.10
2018-09-19T08:55:25.283Z,21.30
2018-09-19T08:57:27.483Z,21.20
2018-09-19T08:59:30.049Z,21.20
2018-09-19T09:01:32.224Z,21.10
2018-09-19T09:03:34.395Z,21.30
2018-09-19T09:05:36.714Z,21.40
2018-09-19T09:07:39.121Z,21.30
2018-09-19T09:09:41.449Z,21.40
2018-09-19T09:11:43.697Z,21.60
2018-09-19T09:13:47.276Z,21.90
2018-09-19T09:15:49.536Z,21.90
2018-09-19T09:17:51.702Z,21.90
2018-09-19T09:19:54.006Z,22.30
2018-09-19T09:21:56.124Z,22.40
2018-09-19T09:23:58.244Z,22.40
2018-09-19T09:26:00.978Z,22.10
2018-09-19T09:28:03.117Z,22.10
2018-09-19T09:30:05.334Z,22.40
2018-09-19T09:32:07.983Z,22.40
2018-09-19T09:34:10.138Z,22.60
2018-09-19T09:36:12.288Z,22.40
2018-09-19T09:38:14.472Z,22.30
2018-09-19T09:40:18.317Z,22.50
2018-09-19T09:42:20.498Z,22.60
2018-09-19T09:44:39.596Z,23.00
2018-09-19T09:46:41.835Z,23.50
2018-09-19T09:48:43.992Z,23.10
2018-09-19T09:50:46.776Z,23.60
2018-09-19T09:52:49.682Z,23.30
2018-09-19T09:54:51.886Z,23.30
2018-09-19T09:56:54.061Z,23.40
2018-09-19T09:58:56.240Z,23.40
2018-09-19T10:00:58.449Z,23.40
2018-09-19T10:03:00.804Z,23.70
2018-09-19T10:05:02.990Z,23.40
2018-09-19T10:07:05.290Z,23.40
2018-09-19T10:09:08.086Z,23.30
2018-09-19T10:11:10.274Z,23.70
2018-09-19T10:13:12.439Z,24.00
2018-09-19T10:15:14.646Z,24.30
2018-09-19T10:17:16.815Z,24.20
2018-09-19T10:19:18.996Z,24.30
2018-09-19T10:21:21.394Z,24.40
2018-09-19T10:23:23.564Z,24.30
2018-09-19T10:25:25.821Z,24.50
2018-09-19T10:27:28.386Z,24.60
2018-09-19T10:29:32.804Z,24.70
2018-09-19T10:31:35.008Z,24.70
2018-09-19T10:33:47.639Z,24.50
2018-09-19T10:35:49.825Z,24.30
2018-09-19T10:37:51.969Z,24.60
2018-09-19T10:39:54.138Z,24.60
2018-09-19T10:41:56.315Z,24.60
2018-09-19T10:43:58.561Z,24.70
2018-09-19T10:46:00.766Z,24.60
2018-09-19T10:48:02.921Z,25.20
2018-09-19T10:50:05.222Z,25.60
2018-09-19T10:52:07.438Z,25.50
2018-09-19T10:54:09.549Z,25.10
2018-09-19T10:56:11.771Z,24.90
2018-09-19T10:58:13.947Z,25.00
2018-09-19T11:00:16.142Z,25.30
2018-09-19T11:02:18.319Z,25.20
2018-09-19T11:04:20.584Z,25.50
2018-09-19T11:06:22.740Z,25.30
2018-09-19T11:08:24.930Z,25.20
2018-09-19T11:10:27.274Z,25.70
2018-09-19T11:12:29.405Z,25.90
2018-09-19T11:14:31.552Z,25.60
2018-09-19T11:16:33.941Z,25.80
2018-09-19T11:18:36.111Z,25.80
2018-09-19T11:20:38.449Z,25.60
2018-09-19T11:22:41.033Z,25.90
2018-09-19T11:24:43.230Z,25.90
2018-09-19T11:26:45.402Z,26.50
2018-09-19T11:28:48.106Z,26.40
2018-09-19T11:30:50.298Z,26.30
2018-09-19T11:32:52.440Z,26.30
2018-09-19T11:34:54.920Z,26.80
2018-09-19T11:36:57.102Z,26.20
2018-09-19T11:38:59.254Z,26.20
2018-09-19T11:41:01.478Z,26.20
2018-09-19T11:43:03.657Z,26.70
2018-09-19T11:45:05.802Z,27.60
2018-09-19T11:47:07.976Z,27.30
2018-09-19T11:49:10.132Z,27.10
2018-09-19T11:51:12.303Z,27.60
2018-09-19T11:53:25.038Z,27.70
2018-09-19T11:55:27.201Z,27.10
2018-09-19T11:57:29.364Z,26.50
2018-09-19T11:59:31.544Z,26.80
2018-09-19T12:01:34.350Z,27.50
2018-09-19T12:03:36.593Z,27.80
2018-09-19T12:05:39.109Z,27.80
2018-09-19T12:07:41.258Z,28.40
2018-09-19T12:09:43.424Z,28.50
2018-09-19T12:11:45.629Z,27.90
2018-09-19T12:13:47.807Z,27.90
2018-09-19T12:15:49.959Z,28.40
2018-09-19T12:17:52.167Z,28.70
2018-09-19T12:19:54.339Z,28.90
2018-09-19T12:21:56.539Z,28.80
2018-09-19T12:23:58.715Z,28.40
2018-09-19T12:26:00.946Z,28.40
2018-09-19T12:28:03.123Z,29.10
2018-09-19T12:30:05.286Z,28.70
2018-09-19T12:32:07.689Z,28.70
2018-09-19T12:34:09.843Z,29.10
2018-09-19T12:36:12.059Z,28.80
2018-09-19T12:38:14.646Z,28.60
2018-09-19T12:40:16.810Z,28.70
2018-09-19T12:42:18.974Z,28.60
2018-09-19T12:44:21.109Z,28.30
2018-09-19T12:46:23.291Z,28.60
2018-09-19T12:48:25.474Z,28.40
2018-09-19T12:50:27.660Z,29.10
2018-09-19T12:52:29.890Z,28.80
2018-09-19T12:54:32.054Z,28.80
2018-09-19T12:56:34.246Z,28.40
2018-09-19T12:58:37.020Z,28.70
2018-09-19T13:00:39.178Z,28.50
2018-09-19T13:02:41.378Z,28.30
2018-09-19T13:04:43.513Z,28.50
2018-09-19T13:06:45.667Z,28.50
2018-09-19T13:08:47.930Z,28.90
2018-09-19T13:10:50.035Z,29.10
2018-09-19T13:12:52.218Z,30.20
2018-09-19T13:14:54.370Z,30.00
2018-09-19T13:16:56.550Z,30.10
2018-09-19T13:18:58.717Z,29.50
2018-09-19T13:21:00.968Z,29.40
2018-09-19T13:23:03.156Z,29.80
2018-09-19T13:25:05.382Z,29.80
2018-09-19T13:27:07.519Z,30.00
2018-09-19T13:29:09.966Z,30.10
2018-09-19T13:31:12.126Z,30.10
2018-09-19T13:33:14.274Z,30.10
2018-09-19T13:35:16.471Z,29.40
2018-09-19T13:37:18.795Z,29.70
2018-09-19T13:39:20.998Z,29.70
2018-09-19T13:41:23.423Z,30.20
2018-09-19T13:43:25.650Z,29.70
2018-09-19T13:45:27.835Z,29.90
2018-09-19T13:47:30.038Z,29.90
2018-09-19T13:49:36.782Z,29.60
2018-09-19T13:51:38.988Z,29.00
2018-09-19T13:53:41.215Z,28.00
2018-09-19T13:55:43.406Z,28.50
2018-09-19T13:57:45.558Z,29.00
2018-09-19T13:59:47.986Z,29.00
2018-09-19T14:01:50.153Z,27.70
2018-09-19T14:03:52.304Z,28.00
2018-09-19T14:05:54.774Z,28.20
2018-09-19T14:07:56.962Z,28.90
2018-09-19T14:09:59.125Z,28.20
2018-09-19T14:12:01.680Z,28.40
2018-09-19T14:14:03.840Z,29.00
2018-09-19T14:16:06.704Z,28.30
2018-09-19T14:18:09.196Z,27.10
2018-09-19T14:20:11.386Z,26.60
2018-09-19T14:22:13.584Z,27.10
2018-09-19T14:24:15.964Z,28.40
2018-09-19T14:26:18.114Z,28.80
2018-09-19T14:28:20.290Z,28.70
2018-09-19T14:30:22.415Z,28.70
2018-09-19T14:32:24.632Z,29.40
2018-09-19T14:34:26.806Z,29.20
2018-09-19T14:36:28.964Z,28.90
2018-09-19T14:38:31.147Z,28.50
2018-09-19T14:40:33.761Z,28.10
2018-09-19T14:42:35.942Z,28.40
2018-09-19T14:44:38.063Z,29.50
2018-09-19T14:46:40.250Z,30.00
2018-09-19T14:48:42.511Z,29.80
2018-09-19T14:50:44.926Z,29.00
2018-09-19T14:52:47.083Z,29.50
2018-09-19T14:54:49.267Z,28.90
2018-09-19T14:56:51.507Z,29.00
2018-09-19T14:58:53.707Z,28.50
2018-09-19T15:00:55.870Z,28.90
2018-09-19T15:03:11.992Z,29.00
2018-09-19T15:05:14.159Z,28.90
2018-09-19T15:07:16.358Z,29.00
2018-09-19T15:09:18.561Z,28.80
2018-09-19T15:11:20.890Z,29.00
2018-09-19T15:13:23.070Z,28.90
2018-09-19T15:15:25.241Z,28.90
2018-09-19T15:17:27.558Z,29.00
2018-09-19T15:19:29.726Z,29.30
2018-09-19T15:21:31.932Z,29.40
2018-09-19T15:23:34.124Z,29.10
2018-09-19T15:25:36.326Z,29.60
2018-09-19T15:27:38.525Z,29.40
2018-09-19T15:29:40.962Z,29.20
2018-09-19T15:31:43.120Z,29.10
2018-09-19T15:33:45.534Z,29.60
2018-09-19T15:35:47.721Z,29.50
2018-09-19T15:37:49.879Z,29.10
2018-09-19T15:39:52.628Z,28.90
2018-09-19T15:41:55.628Z,28.00
2018-09-19T15:44:06.437Z,27.80
2018-09-19T15:46:08.718Z,27.60
2018-09-19T15:48:11.296Z,27.60
2018-09-19T15:50:13.876Z,27.20
2018-09-19T15:52:16.326Z,27.10
2018-09-19T15:54:18.509Z,26.90
2018-09-19T15:56:23.435Z,26.90
2018-09-19T15:58:25.581Z,27.00
2018-09-19T16:00:28.086Z,26.80
2018-09-19T16:02:30.629Z,26.70
2018-09-19T16:04:32.926Z,26.60
2018-09-19T16:06:35.062Z,26.50
2018-09-19T16:08:37.480Z,26.50
2018-09-19T16:10:39.649Z,26.30
2018-09-19T16:12:41.876Z,26.20
2018-09-19T16:14:44.006Z,26.30
2018-09-19T16:16:46.215Z,26.20
2018-09-19T16:18:48.795Z,26.20
2018-09-19T16:20:50.967Z,26.10
2018-09-19T16:22:53.123Z,26.00
2018-09-19T16:24:55.291Z,26.00
2018-09-19T16:26:57.485Z,25.90
2018-09-19T16:28:59.730Z,26.00
2018-09-19T16:31:01.914Z,25.90
2018-09-19T16:33:04.138Z,26.00
2018-09-19T16:35:06.380Z,25.90
2018-09-19T16:37:08.568Z,25.90
2018-09-19T16:39:11.910Z,25.90
2018-09-19T16:41:14.278Z,25.80
2018-09-19T16:43:16.471Z,25.70
2018-09-19T16:45:18.680Z,25.70
2018-09-19T16:47:21.209Z,25.60
2018-09-19T16:49:23.358Z,25.60
2018-09-19T16:51:25.542Z,25.60
2018-09-19T16:53:27.794Z,25.60
2018-09-19T16:55:30.059Z,25.60
2018-09-19T16:57:32.221Z,25.60
2018-09-19T16:59:34.446Z,25.50
2018-09-19T17:01:37.021Z,25.50
2018-09-19T17:03:39.246Z,25.50
2018-09-19T17:05:42.763Z,25.40
2018-09-19T17:07:44.998Z,25.40
2018-09-19T17:09:47.211Z,25.40
2018-09-19T17:11:49.630Z,25.40
2018-09-19T17:13:51.865Z,25.30
2018-09-19T17:15:54.090Z,25.20
2018-09-19T17:17:56.248Z,25.20
2018-09-19T17:19:58.427Z,25.20
2018-09-19T17:22:00.578Z,25.20
2018-09-19T17:24:02.774Z,25.20
2018-09-19T17:26:05.011Z,25.10
2018-09-19T17:28:08.171Z,25.10
2018-09-19T17:30:10.368Z,25.10
2018-09-19T17:32:12.614Z,25.00
2018-09-19T17:34:15.585Z,25.00
2018-09-19T17:36:17.779Z,25.00
2018-09-19T17:38:20.005Z,25.00
2018-09-19T17:40:22.249Z,24.90
2018-09-19T17:42:24.410Z,24.90
2018-09-19T17:44:26.546Z,24.80
2018-09-19T17:46:28.975Z,24.80
2018-09-19T17:48:31.159Z,24.70
2018-09-19T17:50:33.323Z,24.70
2018-09-19T17:52:35.547Z,24.70
2018-09-19T17:54:37.722Z,24.60
2018-09-19T17:56:39.906Z,24.60
2018-09-19T17:58:42.076Z,24.60
2018-09-19T18:00:44.354Z,24.50
2018-09-19T18:02:46.477Z,24.50
2018-09-19T18:04:48.662Z,24.50
2018-09-19T18:06:50.841Z,24.40
2018-09-19T18:08:53.063Z,24.40
2018-09-19T18:10:55.237Z,24.30
2018-09-19T18:12:57.399Z,24.30
2018-09-19T18:14:59.947Z,24.30
2018-09-19T18:17:02.069Z,24.20
2018-09-19T18:19:04.255Z,24.20
2018-09-19T18:21:06.450Z,24.10
2018-09-19T18:23:17.530Z,24.10
2018-09-19T18:25:19.711Z,24.00
2018-09-19T18:27:21.935Z,24.00
2018-09-19T18:29:24.120Z,24.00
2018-09-19T18:31:26.284Z,23.90
2018-09-19T18:33:28.454Z,24.00
2018-09-19T18:35:30.651Z,24.00
2018-09-19T18:37:32.789Z,24.10
2018-09-19T18:39:35.260Z,24.00
2018-09-19T18:41:37.699Z,23.90
2018-09-19T18:43:39.981Z,23.90
2018-09-19T18:45:42.688Z,23.80
2018-09-19T18:47:44.861Z,23.70
2018-09-19T18:49:47.024Z,23.70
2018-09-19T18:51:50.223Z,23.60
2018-09-19T18:53:52.395Z,23.60
2018-09-19T18:55:54.553Z,23.50
2018-09-19T18:57:56.847Z,23.50
2018-09-19T18:59:59.006Z,23.40
2018-09-19T19:02:01.160Z,23.40
2018-09-19T19:04:03.400Z,23.20
2018-09-19T19:06:05.552Z,23.20
2018-09-19T19:08:07.680Z,23.00
2018-09-19T19:10:10.150Z,23.00
2018-09-19T19:12:12.898Z,23.10
2018-09-19T19:14:15.051Z,23.00
2018-09-19T19:16:17.890Z,22.90
2018-09-19T19:18:20.008Z,22.80
2018-09-19T19:20:22.264Z,22.80
2018-09-19T19:22:24.684Z,22.70
2018-09-19T19:24:26.906Z,22.70
2018-09-19T19:26:29.074Z,22.60
2018-09-19T19:28:31.572Z,22.60
2018-09-19T19:30:33.862Z,22.60
2018-09-19T19:32:35.926Z,22.50
2018-09-19T19:34:38.089Z,22.40
2018-09-19T19:36:40.234Z,22.40
2018-09-19T19:38:42.430Z,22.30
2018-09-19T19:40:45.024Z,22.30
2018-09-19T19:42:47.178Z,22.30
2018-09-19T19:44:49.484Z,22.20
2018-09-19T19:46:52.068Z,22.10
2018-09-19T19:48:54.479Z,22.10
2018-09-19T19:50:56.646Z,22.00
2018-09-19T19:52:58.996Z,21.90
2018-09-19T19:55:01.218Z,21.90
2018-09-19T19:57:03.378Z,21.90
2018-09-19T19:59:05.836Z,21.80
2018-09-19T20:01:08.012Z,21.80
2018-09-19T20:03:10.166Z,21.80
2018-09-19T20:05:12.310Z,21.80
2018-09-19T20:07:14.462Z,21.70
2018-09-19T20:09:16.625Z,21.70
2018-09-19T20:11:19.058Z,21.70
2018-09-19T20:13:21.182Z,21.60
2018-09-19T20:15:23.305Z,21.60
2018-09-19T20:17:25.503Z,21.50
2018-09-19T20:19:27.636Z,21.50
2018-09-19T20:21:30.017Z,21.50
2018-09-19T20:23:32.191Z,21.40
2018-09-19T20:25:34.666Z,21.40
2018-09-19T20:27:36.984Z,21.40
2018-09-19T20:29:45.836Z,21.40
2018-09-19T20:31:48.171Z,21.30
2018-09-19T20:33:50.343Z,21.30
2018-09-19T20:35:52.484Z,21.30
2018-09-19T20:37:54.649Z,21.30
2018-09-19T20:39:56.798Z,21.20
2018-09-19T20:41:58.922Z,21.20
2018-09-19T20:44:01.115Z,21.10
2018-09-19T20:46:03.262Z,21.10
2018-09-19T20:48:05.442Z,21.10
2018-09-19T20:50:07.663Z,21.00
2018-09-19T20:52:09.816Z,21.00
2018-09-19T20:54:11.930Z,20.90
2018-09-19T20:56:14.063Z,20.90
2018-09-19T20:58:16.554Z,20.90
2018-09-19T21:00:18.686Z,20.90
2018-09-19T21:02:20.834Z,20.90
2018-09-19T21:04:23.030Z,20.80
2018-09-19T21:06:25.114Z,20.80
2018-09-19T21:08:27.382Z,20.80
2018-09-19T21:10:29.543Z,20.70
2018-09-19T21:12:31.710Z,20.70
2018-09-19T21:14:33.882Z,20.70
2018-09-19T21:16:36.070Z,20.70
2018-09-19T21:18:38.241Z,20.70
2018-09-19T21:20:40.423Z,20.70
2018-09-19T21:22:42.631Z,20.70
2018-09-19T21:24:44.810Z,20.70
2018-09-19T21:26:46.959Z,20.70
2018-09-19T21:28:49.530Z,20.70
2018-09-19T21:30:51.844Z,20.60
2018-09-19T21:32:54.011Z,20.60
2018-09-19T21:34:56.151Z,20.60
2018-09-19T21:36:58.322Z,20.60
2018-09-19T21:39:00.546Z,20.50
2018-09-19T21:41:02.710Z,20.50
2018-09-19T21:43:04.970Z,20.50
2018-09-19T21:45:07.121Z,20.50
2018-09-19T21:47:09.881Z,20.50
2018-09-19T21:49:12.037Z,20.60
2018-09-19T21:51:14.230Z,20.50
2018-09-19T21:53:16.558Z,20.50
2018-09-19T21:55:18.674Z,20.50
2018-09-19T21:57:20.842Z,20.50
2018-09-19T21:59:23.067Z,20.50
2018-09-19T22:01:30.886Z,20.50
2018-09-19T22:03:33.062Z,20.50
2018-09-19T22:05:35.229Z,20.50
2018-09-19T22:07:37.641Z,20.40
2018-09-19T22:09:39.848Z,20.40
2018-09-19T22:11:42.030Z,20.40
2018-09-19T22:13:44.372Z,20.40
2018-09-19T22:15:46.564Z,20.30
2018-09-19T22:17:48.751Z,20.30
2018-09-19T22:19:51.754Z,20.30
2018-09-19T22:21:53.912Z,20.30
2018-09-19T22:23:56.106Z,20.20
2018-09-19T22:25:58.620Z,20.20
2018-09-19T22:28:00.852Z,20.20
2018-09-19T22:30:03.071Z,20.20
2018-09-19T22:32:05.263Z,20.20
2018-09-19T22:34:07.505Z,20.10
2018-09-19T22:36:09.674Z,20.10
2018-09-19T22:38:11.878Z,20.10
2018-09-19T22:40:14.066Z,20.10
2018-09-19T22:42:16.391Z,20.00
2018-09-19T22:44:18.540Z,20.00
2018-09-19T22:46:20.755Z,20.00
2018-09-19T22:48:23.083Z,20.00
2018-09-19T22:50:25.279Z,20.00
2018-09-19T22:52:27.430Z,20.00
2018-09-19T22:54:30.027Z,19.90
2018-09-19T22:56:32.197Z,19.80
2018-09-19T22:58:34.358Z,19.80
2018-09-19T23:00:36.558Z,19.80
2018-09-19T23:02:38.716Z,19.70
2018-09-19T23:04:40.886Z,19.70
2018-09-19T23:06:43.418Z,19.60
2018-09-19T23:08:45.588Z,19.60
2018-09-19T23:10:47.810Z,19.60
2018-09-19T23:12:50.000Z,19.60
2018-09-19T23:14:52.134Z,19.50
2018-09-19T23:16:54.326Z,19.60
2018-09-19T23:18:56.496Z,19.50
2018-09-19T23:20:58.658Z,19.50
2018-09-19T23:23:00.812Z,19.50
2018-09-19T23:25:03.299Z,19.50
2018-09-19T23:27:05.536Z,19.40
2018-09-19T23:29:07.712Z,19.40
2018-09-19T23:31:09.912Z,19.40
2018-09-19T23:33:12.094Z,19.30
2018-09-19T23:35:14.245Z,19.30
2018-09-19T23:37:16.419Z,19.30
2018-09-19T23:39:18.600Z,19.30
2018-09-19T23:41:20.775Z,19.20
2018-09-19T23:43:23.014Z,19.20
2018-09-19T23:45:25.230Z,19.20
2018-09-19T23:47:27.382Z,19.20
2018-09-19T23:49:29.548Z,19.20
2018-09-19T23:51:31.695Z,19.20
2018-09-19T23:53:33.886Z,19.20
2018-09-19T23:55:36.059Z,19.20
2018-09-19T23:57:38.261Z,19.20
2018-09-19T23:59:40.694Z,19.20
